createdAt,value
2017-04-23T00:00:42.793Z,5.90
2017-04-23T00:01:41.723Z,5.90
2017-04-23T00:02:40.727Z,5.90
2017-04-23T00:03:40.498Z,5.90
2017-04-23T00:04:39.458Z,5.90
2017-04-23T00:05:38.380Z,5.90
2017-04-23T00:06:37.289Z,6.00
2017-04-23T00:07:36.949Z,5.90
2017-04-23T00:08:35.940Z,6.00
2017-04-23T00:09:34.853Z,6.00
2017-04-23T00:10:33.930Z,6.00
2017-04-23T00:11:33.559Z,5.90
2017-04-23T00:12:32.549Z,6.00
2017-04-23T00:13:31.459Z,6.00
2017-04-23T00:14:30.385Z,6.00
2017-04-23T00:15:29.348Z,6.00
2017-04-23T00:16:28.985Z,6.00
2017-04-23T00:17:27.895Z,6.10
2017-04-23T00:18:26.876Z,6.10
2017-04-23T00:19:25.833Z,6.10
2017-04-23T00:20:24.752Z,6.10
2017-04-23T00:21:23.676Z,6.10
2017-04-23T00:22:22.705Z,6.10
2017-04-23T00:23:21.644Z,6.10
2017-04-23T00:24:20.556Z,6.10
2017-04-23T00:25:19.502Z,6.10
2017-04-23T00:26:18.453Z,6.10
2017-04-23T00:27:17.376Z,6.10
2017-04-23T00:28:16.293Z,6.10
2017-04-23T00:29:15.206Z,6.00
2017-04-23T00:30:14.883Z,6.00
2017-04-23T00:31:13.793Z,6.10
2017-04-23T00:32:13.479Z,6.00
2017-04-23T00:33:13.149Z,5.90
2017-04-23T00:34:12.095Z,6.00
2017-04-23T00:35:11.321Z,6.00
2017-04-23T00:36:10.238Z,6.00
2017-04-23T00:37:09.893Z,6.00
2017-04-23T00:38:08.800Z,6.00
2017-04-23T00:39:08.452Z,6.00
2017-04-23T00:40:07.391Z,6.00
2017-04-23T00:41:07.032Z,6.00
2017-04-23T00:42:05.952Z,6.00
2017-04-23T00:43:04.854Z,6.00
2017-04-23T00:44:04.567Z,6.00
2017-04-23T00:45:03.484Z,6.00
2017-04-23T00:46:02.430Z,6.00
2017-04-23T00:47:01.368Z,6.00
2017-04-23T00:48:00.290Z,6.00
2017-04-23T00:48:59.215Z,6.00
2017-04-23T00:49:58.145Z,5.90
2017-04-23T00:50:57.817Z,5.90
2017-04-23T00:51:56.716Z,5.90
2017-04-23T00:52:56.365Z,5.90
2017-04-23T00:53:55.277Z,5.90
2017-04-23T00:54:54.185Z,5.90
2017-04-23T00:55:53.900Z,5.90
2017-04-23T00:56:52.808Z,6.00
2017-04-23T00:57:51.736Z,6.00
2017-04-23T00:58:51.389Z,5.90
2017-04-23T00:59:50.328Z,6.00
2017-04-23T01:00:49.251Z,6.00
2017-04-23T01:01:48.211Z,6.00
2017-04-23T01:02:47.124Z,6.00
2017-04-23T01:03:46.024Z,6.00
2017-04-23T01:04:44.965Z,6.00
2017-04-23T01:05:43.892Z,5.90
2017-04-23T01:06:42.817Z,5.90
2017-04-23T01:07:41.780Z,5.90
2017-04-23T01:08:41.491Z,5.80
2017-04-23T01:09:40.483Z,5.90
2017-04-23T01:10:39.412Z,5.90
2017-04-23T01:11:38.337Z,5.90
2017-04-23T01:12:37.311Z,5.90
2017-04-23T01:13:36.251Z,5.90
2017-04-23T01:14:35.303Z,5.90
2017-04-23T01:15:34.215Z,5.90
2017-04-23T01:16:33.133Z,5.90
2017-04-23T01:17:35.234Z,5.90
2017-04-23T01:18:34.239Z,5.90
2017-04-23T01:19:33.306Z,5.90
2017-04-23T01:20:32.341Z,5.90
2017-04-23T01:21:31.363Z,5.90
2017-04-23T01:22:30.401Z,5.90
2017-04-23T01:23:29.460Z,5.90
2017-04-23T01:24:28.491Z,5.90
2017-04-23T01:25:27.508Z,5.90
2017-04-23T01:26:26.558Z,5.90
2017-04-23T01:27:25.688Z,5.80
2017-04-23T01:28:24.755Z,5.80
2017-04-23T01:29:23.725Z,5.80
2017-04-23T01:30:22.687Z,5.80
2017-04-23T01:31:21.823Z,5.80
2017-04-23T01:32:20.704Z,5.80
2017-04-23T01:33:19.613Z,5.80
2017-04-23T01:34:19.304Z,5.80
2017-04-23T01:35:18.225Z,5.80
2017-04-23T01:36:17.184Z,5.80
2017-04-23T01:37:16.853Z,5.70
2017-04-23T01:39:15.027Z,5.70
2017-04-23T01:40:13.938Z,5.70
2017-04-23T01:41:12.843Z,5.70
2017-04-23T01:42:11.748Z,5.70
2017-04-23T01:43:10.669Z,5.70
2017-04-23T01:44:09.595Z,5.70
2017-04-23T01:45:08.512Z,5.60
2017-04-23T01:46:07.487Z,5.70
2017-04-23T01:47:06.393Z,5.70
2017-04-23T01:48:06.083Z,5.60
2017-04-23T01:49:05.007Z,5.60
2017-04-23T01:50:03.911Z,5.60
2017-04-23T01:51:03.121Z,5.60
2017-04-23T01:52:02.067Z,5.60
2017-04-23T01:53:00.996Z,5.60
2017-04-23T01:54:00.664Z,5.50
2017-04-23T01:54:59.686Z,5.50
2017-04-23T01:55:59.336Z,5.50
2017-04-23T01:56:58.283Z,5.50
2017-04-23T01:57:57.188Z,5.50
2017-04-23T01:58:56.093Z,5.60
2017-04-23T01:59:56.097Z,5.60
2017-04-23T02:00:55.122Z,5.60
2017-04-23T02:01:54.829Z,5.50
2017-04-23T02:02:53.749Z,5.50
2017-04-23T02:03:52.665Z,5.50
2017-04-23T02:04:51.564Z,5.50
2017-04-23T02:05:51.224Z,5.50
2017-04-23T02:06:50.143Z,5.60
2017-04-23T02:07:49.812Z,5.50
2017-04-23T02:08:48.747Z,5.60
2017-04-23T02:09:47.717Z,5.60
2017-04-23T02:10:46.622Z,5.60
2017-04-23T02:11:45.546Z,5.60
2017-04-23T02:12:44.576Z,5.60
2017-04-23T02:13:43.489Z,5.60
2017-04-23T02:14:42.373Z,5.60
2017-04-23T02:15:41.279Z,5.60
2017-04-23T02:16:40.915Z,5.60
2017-04-23T02:17:39.827Z,5.60
2017-04-23T02:18:38.768Z,5.60
2017-04-23T02:19:37.672Z,5.60
2017-04-23T02:20:36.632Z,5.60
2017-04-23T02:21:35.572Z,5.60
2017-04-23T02:22:34.515Z,5.60
2017-04-23T02:23:33.497Z,5.60
2017-04-23T02:24:32.440Z,5.60
2017-04-23T02:25:32.083Z,5.50
2017-04-23T02:26:30.995Z,5.60
2017-04-23T02:27:29.927Z,5.60
2017-04-23T02:28:28.867Z,5.60
2017-04-23T02:29:27.792Z,5.60
2017-04-23T02:30:26.735Z,5.60
2017-04-23T02:31:26.411Z,5.60
2017-04-23T02:32:25.338Z,5.60
2017-04-23T02:33:24.231Z,5.60
2017-04-23T02:34:23.160Z,5.60
2017-04-23T02:35:22.064Z,5.60
2017-04-23T02:36:21.719Z,5.50
2017-04-23T02:37:20.635Z,5.50
2017-04-23T02:38:19.552Z,5.50
2017-04-23T02:39:18.526Z,5.50
2017-04-23T02:40:17.459Z,5.50
2017-04-23T02:41:16.348Z,5.50
2017-04-23T02:43:14.728Z,5.50
2017-04-23T02:44:13.681Z,5.50
2017-04-23T02:45:12.583Z,5.40
2017-04-23T02:46:11.516Z,5.40
2017-04-23T02:47:10.421Z,5.40
2017-04-23T02:48:09.373Z,5.40
2017-04-23T02:49:08.277Z,5.40
2017-04-23T02:50:07.200Z,5.40
2017-04-23T02:51:06.895Z,5.30
2017-04-23T02:52:05.825Z,5.40
2017-04-23T02:53:04.775Z,5.40
2017-04-23T02:54:04.485Z,5.30
2017-04-23T02:55:04.128Z,5.30
2017-04-23T02:56:03.084Z,5.30
2017-04-23T02:57:02.199Z,5.30
2017-04-23T02:58:01.100Z,5.30
2017-04-23T02:59:00.001Z,5.30
2017-04-23T02:59:59.045Z,5.30
2017-04-23T03:00:57.995Z,5.30
2017-04-23T03:01:56.906Z,5.30
2017-04-23T03:02:55.824Z,5.30
2017-04-23T03:03:55.455Z,5.30
2017-04-23T03:04:54.468Z,5.30
2017-04-23T03:05:53.388Z,5.30
2017-04-23T03:06:53.031Z,5.30
2017-04-23T03:07:51.933Z,5.30
2017-04-23T03:08:50.861Z,5.30
2017-04-23T03:09:49.892Z,5.30
2017-04-23T03:10:48.820Z,5.30
2017-04-23T03:11:47.739Z,5.30
2017-04-23T03:12:46.650Z,5.30
2017-04-23T03:13:45.552Z,5.30
2017-04-23T03:14:45.204Z,5.30
2017-04-23T03:15:44.137Z,5.30
2017-04-23T03:16:43.810Z,5.30
2017-04-23T03:17:42.808Z,5.30
2017-04-23T03:18:42.468Z,5.30
2017-04-23T03:19:41.378Z,5.30
2017-04-23T03:20:40.288Z,5.40
2017-04-23T03:21:39.803Z,5.40
2017-04-23T03:22:38.711Z,5.40
2017-04-23T03:23:38.021Z,5.30
2017-04-23T03:25:36.375Z,5.40
2017-04-23T03:26:35.294Z,5.30
2017-04-23T03:27:34.964Z,5.30
2017-04-23T03:28:33.868Z,5.40
2017-04-23T03:29:33.631Z,5.30
2017-04-23T03:30:32.514Z,5.40
2017-04-23T03:31:31.419Z,5.40
2017-04-23T03:32:30.318Z,5.40
2017-04-23T03:33:29.968Z,5.40
2017-04-23T03:34:28.883Z,5.40
2017-04-23T03:35:27.835Z,5.40
2017-04-23T03:36:26.788Z,5.40
2017-04-23T03:37:25.741Z,5.40
2017-04-23T03:38:25.456Z,5.40
2017-04-23T03:39:24.381Z,5.40
2017-04-23T03:40:23.289Z,5.40
2017-04-23T03:41:22.204Z,5.30
2017-04-23T03:42:21.115Z,5.30
2017-04-23T03:43:20.011Z,5.30
2017-04-23T03:44:18.899Z,5.30
2017-04-23T03:45:17.967Z,5.30
2017-04-23T03:46:16.872Z,5.30
2017-04-23T03:47:15.832Z,5.20
2017-04-23T03:48:14.781Z,5.20
2017-04-23T03:49:13.685Z,5.20
2017-04-23T03:50:12.594Z,5.20
2017-04-23T03:51:11.519Z,5.20
2017-04-23T03:52:10.452Z,5.20
2017-04-23T03:54:08.749Z,5.10
2017-04-23T03:55:08.409Z,5.00
2017-04-23T03:56:07.307Z,5.10
2017-04-23T03:57:06.212Z,5.00
2017-04-23T03:58:05.864Z,5.00
2017-04-23T03:59:04.897Z,5.00
2017-04-23T04:00:04.571Z,4.90
2017-04-23T04:01:03.528Z,4.90
2017-04-23T04:02:02.431Z,4.90
2017-04-23T04:03:01.345Z,4.90
2017-04-23T04:04:00.263Z,4.90
2017-04-23T04:04:59.215Z,4.90
2017-04-23T04:05:58.107Z,4.90
2017-04-23T04:06:57.007Z,4.90
2017-04-23T04:07:55.963Z,4.90
2017-04-23T04:08:54.857Z,4.90
2017-04-23T04:09:53.780Z,4.90
2017-04-23T04:10:53.456Z,4.80
2017-04-23T04:11:52.363Z,4.70
2017-04-23T04:12:51.286Z,4.70
2017-04-23T04:13:50.190Z,4.60
2017-04-23T04:14:49.079Z,4.40
2017-04-23T04:15:47.997Z,4.30
2017-04-23T04:16:50.584Z,4.20
2017-04-23T04:17:49.569Z,4.20
2017-04-23T04:18:48.499Z,4.20
2017-04-23T04:19:47.405Z,4.20
2017-04-23T04:20:46.300Z,4.20
2017-04-23T04:21:45.963Z,4.20
2017-04-23T04:22:44.904Z,4.20
2017-04-23T04:23:43.808Z,4.20
2017-04-23T04:24:42.797Z,4.20
2017-04-23T04:25:41.712Z,4.20
2017-04-23T04:26:41.395Z,4.20
2017-04-23T04:27:40.309Z,4.20
2017-04-23T04:28:39.244Z,4.30
2017-04-23T04:29:38.139Z,4.30
2017-04-23T04:30:37.059Z,4.30
2017-04-23T04:31:35.957Z,4.30
2017-04-23T04:32:34.878Z,4.40
2017-04-23T04:33:33.857Z,4.40
2017-04-23T04:34:32.791Z,4.40
2017-04-23T04:35:31.711Z,4.40
2017-04-23T04:36:30.752Z,4.40
2017-04-23T04:37:29.637Z,4.40
2017-04-23T04:38:28.523Z,4.40
2017-04-23T04:39:27.535Z,4.40
2017-04-23T04:40:26.452Z,4.40
2017-04-23T04:41:25.399Z,4.40
2017-04-23T04:42:24.299Z,4.40
2017-04-23T04:43:23.191Z,4.50
2017-04-23T04:44:22.819Z,4.40
2017-04-23T04:45:21.724Z,4.50
2017-04-23T04:46:20.943Z,4.50
2017-04-23T04:47:19.868Z,4.50
2017-04-23T04:48:18.768Z,4.50
2017-04-23T04:49:17.679Z,4.50
2017-04-23T04:50:16.588Z,4.50
2017-04-23T04:51:15.492Z,4.60
2017-04-23T04:52:14.411Z,4.60
2017-04-23T04:53:13.312Z,4.60
2017-04-23T04:54:12.223Z,4.60
2017-04-23T04:55:11.155Z,4.70
2017-04-23T04:56:10.063Z,4.70
2017-04-23T04:57:09.705Z,4.70
2017-04-23T04:58:08.674Z,4.70
2017-04-23T04:59:07.571Z,4.80
2017-04-23T05:00:06.489Z,4.80
2017-04-23T05:01:05.379Z,4.80
2017-04-23T05:02:05.035Z,4.80
2017-04-23T05:03:03.965Z,4.90
2017-04-23T05:04:03.624Z,4.80
2017-04-23T05:05:02.532Z,4.90
2017-04-23T05:06:01.453Z,4.90
2017-04-23T05:07:00.379Z,4.90
2017-04-23T05:07:59.324Z,4.90
2017-04-23T05:08:58.224Z,5.00
2017-04-23T05:09:57.229Z,5.00
2017-04-23T05:10:56.163Z,5.00
2017-04-23T05:11:55.128Z,5.00
2017-04-23T05:12:54.062Z,5.10
2017-04-23T05:13:53.364Z,5.10
2017-04-23T05:14:52.312Z,5.10
2017-04-23T05:15:51.363Z,5.10
2017-04-23T05:16:50.286Z,5.10
2017-04-23T05:17:49.251Z,5.20
2017-04-23T05:18:48.217Z,5.20
2017-04-23T05:19:47.117Z,5.20
2017-04-23T05:20:46.107Z,5.20
2017-04-23T05:21:45.123Z,5.20
2017-04-23T05:22:44.035Z,5.20
2017-04-23T05:23:43.710Z,5.20
2017-04-23T05:24:42.604Z,5.20
2017-04-23T05:25:42.277Z,5.20
2017-04-23T05:26:41.187Z,5.30
2017-04-23T05:27:40.864Z,5.20
2017-04-23T05:28:39.797Z,5.30
2017-04-23T05:29:38.728Z,5.30
2017-04-23T05:30:37.680Z,5.30
2017-04-23T05:31:36.607Z,5.40
2017-04-23T05:32:36.419Z,5.40
2017-04-23T05:33:36.073Z,5.40
2017-04-23T05:34:34.988Z,5.50
2017-04-23T05:35:34.707Z,5.50
2017-04-23T05:36:39.368Z,5.50
2017-04-23T05:37:38.460Z,5.50
2017-04-23T05:38:37.474Z,5.50
2017-04-23T05:39:37.134Z,5.50
2017-04-23T05:40:36.085Z,5.60
2017-04-23T05:41:34.995Z,5.60
2017-04-23T05:42:33.926Z,5.60
2017-04-23T05:43:33.559Z,5.60
2017-04-23T05:44:32.523Z,5.60
2017-04-23T05:45:31.483Z,5.60
2017-04-23T05:46:30.415Z,5.70
2017-04-23T05:47:29.458Z,5.70
2017-04-23T05:48:28.387Z,5.60
2017-04-23T05:49:27.419Z,5.70
2017-04-23T05:50:27.081Z,5.60
2017-04-23T05:51:26.135Z,5.70
2017-04-23T05:52:25.115Z,5.70
2017-04-23T05:53:24.027Z,5.70
2017-04-23T05:54:22.964Z,5.70
2017-04-23T05:55:21.922Z,5.80
2017-04-23T05:56:21.608Z,5.70
2017-04-23T05:57:21.439Z,5.70
2017-04-23T05:58:20.342Z,5.70
2017-04-23T05:59:19.267Z,5.60
2017-04-23T06:00:18.952Z,5.60
2017-04-23T06:01:17.864Z,5.50
2017-04-23T06:02:17.038Z,5.50
2017-04-23T06:03:16.212Z,5.50
2017-04-23T06:04:15.115Z,5.40
2017-04-23T06:05:14.779Z,5.40
2017-04-23T06:06:13.689Z,5.50
2017-04-23T06:07:13.324Z,5.40
2017-04-23T06:08:12.274Z,5.40
2017-04-23T06:09:11.920Z,5.40
2017-04-23T06:10:10.906Z,5.40
2017-04-23T06:11:09.883Z,5.50
2017-04-23T06:12:08.788Z,5.50
2017-04-23T06:13:07.699Z,5.50
2017-04-23T06:14:07.709Z,5.50
2017-04-23T06:15:06.648Z,5.50
2017-04-23T06:16:05.549Z,5.50
2017-04-23T06:17:04.445Z,5.50
2017-04-23T06:18:04.105Z,5.40
2017-04-23T06:19:03.028Z,5.50
2017-04-23T06:20:02.783Z,5.50
2017-04-23T06:21:01.893Z,5.50
2017-04-23T06:22:01.591Z,5.50
2017-04-23T06:23:00.515Z,5.60
2017-04-23T06:23:59.565Z,5.60
2017-04-23T06:24:58.550Z,5.60
2017-04-23T06:25:57.511Z,5.60
2017-04-23T06:26:56.490Z,5.60
2017-04-23T06:27:55.495Z,5.70
2017-04-23T06:28:55.178Z,5.70
2017-04-23T06:29:54.132Z,5.70
2017-04-23T06:30:53.045Z,5.70
2017-04-23T06:31:51.989Z,5.70
2017-04-23T06:32:50.884Z,5.80
2017-04-23T06:33:49.916Z,5.70
2017-04-23T06:34:49.563Z,5.70
2017-04-23T06:35:48.488Z,5.80
2017-04-23T06:36:48.264Z,5.80
2017-04-23T06:37:47.208Z,5.80
2017-04-23T06:38:46.125Z,5.80
2017-04-23T06:39:45.068Z,5.80
2017-04-23T06:40:43.995Z,5.80
2017-04-23T06:41:42.924Z,5.90
2017-04-23T06:42:41.811Z,5.80
2017-04-23T06:43:40.888Z,5.80
2017-04-23T06:44:39.822Z,5.90
2017-04-23T06:45:38.745Z,5.90
2017-04-23T06:46:38.013Z,6.00
2017-04-23T06:47:37.699Z,5.90
2017-04-23T06:48:36.593Z,6.00
2017-04-23T06:49:36.299Z,6.00
2017-04-23T06:50:35.968Z,6.10
2017-04-23T06:51:34.882Z,6.10
2017-04-23T06:52:34.544Z,6.10
2017-04-23T06:53:33.470Z,6.20
2017-04-23T06:54:32.397Z,6.20
2017-04-23T06:55:31.380Z,6.30
2017-04-23T06:56:30.296Z,6.40
2017-04-23T06:57:29.988Z,6.30
2017-04-23T06:58:28.945Z,6.40
2017-04-23T06:59:27.911Z,6.40
2017-04-23T07:00:26.875Z,6.50
2017-04-23T07:01:25.908Z,6.50
2017-04-23T07:02:26.055Z,6.50
2017-04-23T07:03:25.398Z,6.40
2017-04-23T07:04:24.285Z,6.30
2017-04-23T07:05:23.196Z,6.20
2017-04-23T07:06:22.835Z,6.10
2017-04-23T07:07:21.988Z,6.10
2017-04-23T07:08:20.896Z,6.10
2017-04-23T07:09:19.900Z,6.10
2017-04-23T07:10:18.811Z,6.00
2017-04-23T07:11:18.566Z,5.80
2017-04-23T07:12:17.479Z,5.70
2017-04-23T07:13:16.535Z,5.60
2017-04-23T07:14:15.444Z,5.50
2017-04-23T07:15:14.418Z,5.40
2017-04-23T07:16:13.408Z,5.20
2017-04-23T07:17:12.299Z,5.10
2017-04-23T07:18:11.255Z,5.00
2017-04-23T07:19:10.210Z,5.00
2017-04-23T07:20:09.222Z,4.90
2017-04-23T07:21:08.155Z,4.90
2017-04-23T07:22:07.074Z,4.60
2017-04-23T07:23:05.986Z,4.40
2017-04-23T07:24:04.949Z,4.20
2017-04-23T07:25:03.875Z,4.00
2017-04-23T07:26:02.772Z,3.90
2017-04-23T07:27:01.768Z,3.90
2017-04-23T07:28:00.675Z,3.90
2017-04-23T07:28:59.657Z,3.90
2017-04-23T07:29:58.564Z,4.00
2017-04-23T07:30:57.486Z,4.00
2017-04-23T07:31:56.401Z,4.00
2017-04-23T07:32:55.327Z,4.10
2017-04-23T07:33:54.274Z,4.20
2017-04-23T07:34:53.179Z,4.30
2017-04-23T07:35:52.838Z,4.30
2017-04-23T07:36:51.756Z,4.40
2017-04-23T07:37:51.439Z,4.50
2017-04-23T07:38:50.339Z,4.60
2017-04-23T07:39:50.163Z,4.60
2017-04-23T07:40:49.131Z,4.80
2017-04-23T07:41:48.028Z,4.80
2017-04-23T07:42:46.965Z,4.90
2017-04-23T07:43:45.872Z,4.90
2017-04-23T07:44:44.800Z,5.00
2017-04-23T07:45:43.755Z,5.00
2017-04-23T07:46:42.658Z,5.10
2017-04-23T07:47:41.557Z,5.10
2017-04-23T07:48:40.667Z,5.20
2017-04-23T07:49:40.328Z,5.20
2017-04-23T07:50:39.408Z,5.30
2017-04-23T07:51:38.501Z,5.30
2017-04-23T07:52:37.424Z,5.40
2017-04-23T07:53:36.331Z,5.50
2017-04-23T07:54:35.273Z,5.50
2017-04-23T07:55:34.920Z,5.60
2017-04-23T07:56:33.920Z,5.70
2017-04-23T07:57:32.864Z,5.80
2017-04-23T07:58:31.907Z,5.90
2017-04-23T07:59:31.044Z,5.90
2017-04-23T08:00:30.060Z,6.00
2017-04-23T08:01:29.004Z,6.10
2017-04-23T08:02:28.872Z,6.10
2017-04-23T08:03:28.595Z,6.10
2017-04-23T08:04:27.647Z,6.20
2017-04-23T08:05:26.907Z,6.20
2017-04-23T08:06:25.914Z,6.20
2017-04-23T08:07:24.839Z,6.30
2017-04-23T08:08:23.765Z,6.30
2017-04-23T08:09:22.701Z,6.30
2017-04-23T08:10:21.604Z,6.30
2017-04-23T08:11:20.527Z,6.40
2017-04-23T08:12:19.556Z,6.40
2017-04-23T08:13:18.554Z,6.40
2017-04-23T08:14:17.544Z,6.40
2017-04-23T08:15:16.572Z,6.40
2017-04-23T08:16:15.734Z,6.50
2017-04-23T08:17:15.568Z,6.50
2017-04-23T08:18:14.568Z,6.70
2017-04-23T08:19:13.473Z,6.70
2017-04-23T08:20:12.406Z,6.80
2017-04-23T08:21:11.330Z,6.90
2017-04-23T08:22:10.329Z,6.90
2017-04-23T08:23:09.308Z,6.80
2017-04-23T08:25:07.631Z,6.80
2017-04-23T08:26:06.628Z,6.70
2017-04-23T08:27:05.634Z,6.70
2017-04-23T08:28:04.629Z,6.70
2017-04-23T08:29:03.524Z,6.60
2017-04-23T08:30:02.456Z,6.60
2017-04-23T08:31:01.369Z,6.60
2017-04-23T08:32:00.266Z,6.60
2017-04-23T08:32:59.475Z,6.70
2017-04-23T08:33:58.409Z,6.60
2017-04-23T08:34:57.323Z,6.70
2017-04-23T08:35:57.008Z,6.70
2017-04-23T08:36:55.909Z,6.70
2017-04-23T08:37:54.960Z,6.80
2017-04-23T08:38:53.989Z,6.80
2017-04-23T08:41:07.803Z,7.00
2017-04-23T08:42:06.759Z,7.20
2017-04-23T08:43:05.683Z,7.20
2017-04-23T08:44:04.627Z,7.30
2017-04-23T08:45:03.540Z,7.30
2017-04-23T08:46:03.193Z,7.30
2017-04-23T08:47:02.136Z,7.50
2017-04-23T08:48:01.066Z,7.40
2017-04-23T08:48:59.985Z,7.50
2017-04-23T08:49:58.900Z,7.40
2017-04-23T08:50:57.914Z,7.40
2017-04-23T08:51:56.804Z,7.40
2017-04-23T08:52:55.751Z,7.40
2017-04-23T08:53:54.696Z,7.40
2017-04-23T08:54:53.597Z,7.30
2017-04-23T08:55:52.620Z,7.20
2017-04-23T08:56:52.311Z,7.00
2017-04-23T08:57:51.311Z,6.80
2017-04-23T08:58:51.112Z,6.60
2017-04-23T08:59:50.089Z,6.50
2017-04-23T09:00:49.047Z,6.40
2017-04-23T09:01:47.972Z,6.40
2017-04-23T09:02:47.669Z,6.30
2017-04-23T09:03:47.331Z,6.30
2017-04-23T09:04:46.314Z,6.30
2017-04-23T09:05:45.295Z,6.30
2017-04-23T09:06:44.215Z,6.20
2017-04-23T09:07:43.924Z,6.20
2017-04-23T09:08:43.581Z,6.30
2017-04-23T09:09:42.575Z,6.40
2017-04-23T09:10:41.515Z,6.50
2017-04-23T09:11:40.465Z,6.50
2017-04-23T09:12:40.209Z,6.50
2017-04-23T09:13:39.160Z,6.70
2017-04-23T09:14:38.080Z,6.70
2017-04-23T09:15:36.996Z,6.90
2017-04-23T09:16:35.940Z,7.00
2017-04-23T09:17:34.886Z,7.00
2017-04-23T09:18:33.833Z,7.00
2017-04-23T09:19:32.775Z,7.00
2017-04-23T09:20:31.699Z,7.00
2017-04-23T09:21:30.701Z,7.10
2017-04-23T09:22:30.410Z,7.20
2017-04-23T09:23:30.116Z,7.30
2017-04-23T09:24:29.081Z,7.40
2017-04-23T09:25:28.745Z,7.40
2017-04-23T09:26:27.694Z,7.40
2017-04-23T09:27:26.601Z,7.40
2017-04-23T09:28:25.611Z,7.30
2017-04-23T09:29:24.527Z,7.30
2017-04-23T09:30:23.448Z,7.30
2017-04-23T09:31:22.369Z,7.40
2017-04-23T09:32:22.134Z,7.30
2017-04-23T09:33:21.060Z,7.40
2017-04-23T09:34:20.028Z,7.40
2017-04-23T09:35:18.999Z,7.40
2017-04-23T09:36:17.957Z,7.40
2017-04-23T09:37:16.890Z,7.50
2017-04-23T09:38:15.862Z,7.40
2017-04-23T09:39:15.553Z,7.40
2017-04-23T09:40:15.220Z,7.40
2017-04-23T09:41:14.140Z,7.40
2017-04-23T09:42:13.796Z,7.40
2017-04-23T09:43:12.724Z,7.50
2017-04-23T09:44:12.432Z,7.50
2017-04-23T09:45:11.722Z,7.50
2017-04-23T09:46:10.680Z,7.60
2017-04-23T09:47:10.329Z,7.60
2017-04-23T09:48:09.258Z,7.70
2017-04-23T09:49:08.913Z,7.80
2017-04-23T09:50:07.836Z,8.00
2017-04-23T09:51:07.498Z,8.00
2017-04-23T09:52:06.444Z,8.00
2017-04-23T09:53:05.420Z,7.90
2017-04-23T09:54:04.399Z,7.90
2017-04-23T09:55:04.051Z,6.60
2017-04-23T09:56:03.105Z,7.70
2017-04-23T09:57:02.155Z,7.60
2017-04-23T09:58:01.814Z,7.60
2017-04-23T09:59:00.756Z,7.60
2017-04-23T09:59:59.689Z,7.70
2017-04-23T10:00:58.604Z,7.60
2017-04-23T10:01:58.287Z,7.60
2017-04-23T10:02:58.133Z,7.70
2017-04-23T10:03:57.129Z,7.70
2017-04-23T10:04:56.043Z,7.80
2017-04-23T10:05:55.111Z,7.80
2017-04-23T10:06:54.086Z,7.80
2017-04-23T10:07:53.044Z,7.90
2017-04-23T10:08:51.992Z,7.80
2017-04-23T10:09:51.724Z,7.80
2017-04-23T10:10:50.625Z,7.90
2017-04-23T10:11:49.557Z,7.90
2017-04-23T10:12:48.468Z,7.90
2017-04-23T10:13:47.451Z,7.80
2017-04-23T10:14:46.467Z,7.80
2017-04-23T10:15:45.407Z,7.80
2017-04-23T10:16:44.333Z,7.80
2017-04-23T10:17:43.292Z,7.80
2017-04-23T10:18:42.402Z,7.80
2017-04-23T10:19:41.354Z,7.70
2017-04-23T10:20:40.292Z,7.70
2017-04-23T10:21:39.976Z,7.70
2017-04-23T10:22:39.250Z,7.90
2017-04-23T10:23:38.228Z,7.90
2017-04-23T10:24:37.211Z,8.00
2017-04-23T10:25:36.140Z,8.10
2017-04-23T10:26:35.814Z,8.00
2017-04-23T10:27:34.732Z,8.00
2017-04-23T10:28:33.668Z,7.90
2017-04-23T10:29:32.916Z,7.90
2017-04-23T10:30:31.894Z,7.90
2017-04-23T10:31:30.796Z,8.00
2017-04-23T10:32:29.742Z,8.00
2017-04-23T10:33:29.440Z,8.10
2017-04-23T10:34:29.148Z,8.10
2017-04-23T10:35:28.056Z,8.20
2017-04-23T10:36:27.017Z,8.20
2017-04-23T10:37:25.966Z,8.30
2017-04-23T10:38:25.660Z,8.20
2017-04-23T10:39:24.596Z,8.30
2017-04-23T10:40:23.488Z,8.40
2017-04-23T10:41:22.391Z,8.40
2017-04-23T10:42:21.295Z,8.40
2017-04-23T10:43:20.214Z,8.40
2017-04-23T10:44:19.144Z,8.50
2017-04-23T10:45:18.845Z,8.40
2017-04-23T10:46:18.525Z,8.30
2017-04-23T10:47:18.168Z,8.30
2017-04-23T10:48:17.823Z,8.30
2017-04-23T10:49:16.776Z,8.40
2017-04-23T10:50:15.777Z,8.40
2017-04-23T10:51:14.713Z,8.30
2017-04-23T10:52:13.747Z,8.30
2017-04-23T10:53:12.688Z,8.20
2017-04-23T10:54:11.607Z,8.20
2017-04-23T10:55:10.536Z,8.20
2017-04-23T10:56:09.568Z,8.20
2017-04-23T10:57:08.799Z,8.20
2017-04-23T10:58:07.743Z,8.20
2017-04-23T10:59:06.668Z,8.30
2017-04-23T11:00:05.576Z,8.20
2017-04-23T11:01:04.582Z,8.00
2017-04-23T11:02:03.472Z,8.00
2017-04-23T11:03:02.411Z,8.10
2017-04-23T11:04:01.320Z,8.10
2017-04-23T11:05:00.264Z,8.10
2017-04-23T11:05:59.245Z,8.20
2017-04-23T11:06:58.175Z,8.20
2017-04-23T11:07:57.119Z,8.20
2017-04-23T11:08:56.052Z,8.20
2017-04-23T11:09:54.965Z,8.20
2017-04-23T11:10:53.902Z,8.10
2017-04-23T11:11:52.819Z,8.20
2017-04-23T11:12:52.528Z,8.20
2017-04-23T11:13:51.453Z,8.40
2017-04-23T11:14:50.593Z,8.50
2017-04-23T11:15:49.508Z,8.60
2017-04-23T11:16:48.428Z,8.60
2017-04-23T11:17:47.357Z,8.60
2017-04-23T11:18:46.278Z,8.60
2017-04-23T11:19:46.006Z,8.10
2017-04-23T11:20:44.992Z,7.60
2017-04-23T11:21:44.640Z,7.20
2017-04-23T11:22:43.567Z,6.80
2017-04-23T11:23:43.215Z,6.40
2017-04-23T11:24:42.207Z,6.30
2017-04-23T11:25:41.133Z,6.10
2017-04-23T11:26:40.825Z,5.90
2017-04-23T11:27:40.475Z,5.80
2017-04-23T11:28:39.373Z,5.90
2017-04-23T11:29:38.344Z,6.00
2017-04-23T11:30:37.272Z,6.10
2017-04-23T11:31:36.957Z,6.20
2017-04-23T11:32:36.636Z,6.30
2017-04-23T11:33:35.623Z,6.40
2017-04-23T11:34:34.567Z,6.50
2017-04-23T11:35:33.503Z,6.50
2017-04-23T11:36:33.167Z,6.60
2017-04-23T11:37:32.084Z,6.60
2017-04-23T11:38:31.760Z,6.70
2017-04-23T11:39:30.713Z,6.70
2017-04-23T11:40:29.677Z,6.70
2017-04-23T11:41:28.584Z,6.70
2017-04-23T11:42:27.496Z,6.70
2017-04-23T11:43:26.560Z,6.80
2017-04-23T11:44:25.512Z,6.80
2017-04-23T11:45:24.524Z,6.90
2017-04-23T11:46:23.462Z,7.00
2017-04-23T11:47:22.490Z,7.00
2017-04-23T11:48:21.436Z,7.20
2017-04-23T11:49:20.388Z,7.40
2017-04-23T11:50:19.345Z,7.50
2017-04-23T11:51:18.292Z,7.60
2017-04-23T11:52:17.208Z,7.70
2017-04-23T11:53:16.107Z,7.80
2017-04-23T11:54:15.821Z,7.80
2017-04-23T11:55:15.520Z,7.80
2017-04-23T11:56:14.509Z,7.90
2017-04-23T11:57:14.151Z,8.00
2017-04-23T11:58:13.068Z,8.20
2017-04-23T11:59:12.743Z,8.30
2017-04-23T12:00:11.700Z,8.40
2017-04-23T12:01:10.624Z,8.60
2017-04-23T12:02:10.355Z,8.50
2017-04-23T12:03:09.303Z,8.60
2017-04-23T12:04:08.980Z,8.60
2017-04-23T12:05:07.896Z,8.50
2017-04-23T12:06:07.561Z,8.40
2017-04-23T12:07:06.520Z,8.60
2017-04-23T12:08:05.455Z,8.70
2017-04-23T12:09:06.032Z,8.70
2017-04-23T12:10:05.003Z,8.80
2017-04-23T12:11:04.167Z,8.70
2017-04-23T12:12:03.110Z,8.60
2017-04-23T12:13:02.023Z,8.60
2017-04-23T12:14:00.994Z,8.50
2017-04-23T12:15:00.698Z,8.50
2017-04-23T12:16:00.401Z,8.50
2017-04-23T12:17:00.063Z,8.60
2017-04-23T12:17:59.015Z,8.80
2017-04-23T12:18:57.945Z,8.80
2017-04-23T12:19:57.641Z,8.70
2017-04-23T12:20:56.573Z,8.90
2017-04-23T12:21:55.473Z,8.90
2017-04-23T12:22:54.392Z,8.90
2017-04-23T12:23:54.284Z,8.90
2017-04-23T12:24:53.956Z,8.90
2017-04-23T12:25:52.895Z,8.90
2017-04-23T12:26:51.858Z,8.90
2017-04-23T12:27:51.525Z,8.90
2017-04-23T12:28:50.466Z,9.00
2017-04-23T12:29:49.407Z,9.10
2017-04-23T12:30:48.322Z,9.10
2017-04-23T12:31:47.276Z,9.30
2017-04-23T12:32:46.932Z,9.20
2017-04-23T12:33:45.816Z,9.20
2017-04-23T12:34:44.756Z,9.20
2017-04-23T12:35:44.509Z,8.20
2017-04-23T12:36:43.457Z,9.10
2017-04-23T12:37:42.482Z,9.00
2017-04-23T12:38:41.426Z,9.00
2017-04-23T12:39:40.463Z,9.10
2017-04-23T12:40:39.550Z,9.00
2017-04-23T12:41:39.259Z,8.20
2017-04-23T12:42:38.245Z,9.00
2017-04-23T12:43:37.935Z,8.90
2017-04-23T12:44:37.667Z,8.80
2017-04-23T12:45:36.591Z,8.70
2017-04-23T12:46:35.561Z,8.70
2017-04-23T12:47:34.434Z,8.70
2017-04-23T12:48:33.768Z,8.70
2017-04-23T12:49:32.746Z,8.60
2017-04-23T12:50:32.430Z,8.60
2017-04-23T12:51:31.342Z,8.60
2017-04-23T12:52:31.067Z,8.60
2017-04-23T12:53:29.938Z,7.90
2017-04-23T12:54:28.996Z,8.60
2017-04-23T12:55:28.001Z,8.70
2017-04-23T12:56:27.658Z,8.70
2017-04-23T12:57:26.564Z,8.60
2017-04-23T12:58:26.275Z,8.60
2017-04-23T12:59:25.241Z,8.70
2017-04-23T13:00:24.939Z,8.60
2017-04-23T13:01:24.636Z,8.70
2017-04-23T13:03:23.722Z,8.70
2017-04-23T13:04:22.645Z,8.80
2017-04-23T13:05:21.644Z,8.80
2017-04-23T13:06:20.572Z,8.80
2017-04-23T13:07:20.393Z,8.90
2017-04-23T13:08:19.295Z,9.00
2017-04-23T13:09:18.242Z,9.10
2017-04-23T13:10:17.958Z,9.00
2017-04-23T13:11:17.911Z,8.90
2017-04-23T13:12:16.837Z,8.80
2017-04-23T13:13:16.528Z,8.70
2017-04-23T13:14:16.206Z,8.80